Armagh, PA (15920)

10:07 AM EST on November 24, 2014 (GMT -0500)
Seward | Change Station
CLOSE
Current Station
Personal Weather Station
Location: Seward, PA
Elevation: 1138 ft
Nearby Weather Stations
Active Advisory: Wind Advisory Active Notice: Public Information Statement

Elev 1138 ft 40.41 °N, 79.02 °W | Updated 7 minutes ago

Partly Cloudy
Partly Cloudy
67.2 °F
Feels Like 67.2 °F
N
3.0
Wind Variable Wind from West
Gusts 20.0 mph

Today
High -- | Low -- °F
--% Chance of Precip.
Yesterday
High -- | Low -- °F
Precip. -- in
7:12 AM 4:52 PM
Waxing Crescent, 5% visible
Pressure 29.52 in
Visibility 10.0 miles
Clouds Scattered Clouds 4500 ft
Dew Point 52 °F
Humidity 59%
Rainfall 0.03 in
Snow Depth Not available.
UV 1 out of 12
Pollen .10 out of 12
Air Quality Not available.
Flu Activity Not available.
METAR KJST 241454Z AUTO 17017G22KT 10SM SCT045 15/09 A2952 RMK AO2 SLP996 T01500089 58003

More Conditions Fewer Conditions

Pressure 29.52 in
Visibility 10.0 miles
Clouds Scattered Clouds 4500 ft
Dew Point 52 °F
Humidity 59%
Rainfall 0.03 in
Snow Depth Not available.
UV 1 out of 12
Pollen .10 out of 12
Air Quality Not available.
Flu Activity Not available.
METAR KJST 241454Z AUTO 17017G22KT 10SM SCT045 15/09 A2952 RMK AO2 SLP996 T01500089 58003

More Conditions Fewer Conditions

10-Day Weather Forecast

Almanac

Astronomy

Nov. 24, 2014 Rise Set
Actual Time
Civil Twilight
Nautical Twilight
Astronomical Twilight
Moon
Length of Visible Light
Length of Day
Tomorrow will be .
, % of the Moon is Illuminated

Today's Extremes

State Highs State Lows

Community

WunderPhotos

Upload Photos

1,773,360 photos uploaded!

WunderBlogs® & News

Nearby

Air Quality

  Air Quality AQ Index Pollutant
Not available.

Snow Depth

Station Depth Elevation

Earthquake Activity

City Distance Mag. Time & Date
Minimum magnitude displayed is 2.5.

Coastal Water Temperatures

Place Temperature

Nearby Weather Stations